createdAt,value
2019-05-16T00:02:01.359Z,36.80
2019-05-16T00:04:31.365Z,36.80
2019-05-16T00:07:01.042Z,36.70
2019-05-16T00:09:30.735Z,36.90
2019-05-16T00:12:00.498Z,36.90
2019-05-16T00:14:30.209Z,37.10
2019-05-16T00:16:59.970Z,36.90
2019-05-16T00:19:29.658Z,37.10
2019-05-16T00:21:59.330Z,37.10
2019-05-16T00:24:29.222Z,37.10
2019-05-16T00:26:58.951Z,37.30
2019-05-16T00:29:28.721Z,37.30
2019-05-16T00:31:58.460Z,37.40
2019-05-16T00:34:28.231Z,37.30
2019-05-16T00:36:58.295Z,37.50
2019-05-16T00:39:28.253Z,37.40
2019-05-16T00:41:58.390Z,37.50
2019-05-16T00:44:28.285Z,37.50
2019-05-16T00:46:58.092Z,37.50
2019-05-16T00:49:29.085Z,37.50
2019-05-16T00:51:58.901Z,37.50
2019-05-16T00:54:28.678Z,37.60
2019-05-16T00:57:00.502Z,37.60
2019-05-16T00:59:30.550Z,37.70
2019-05-16T01:02:00.244Z,37.80
2019-05-16T01:04:29.929Z,37.80
2019-05-16T01:07:01.673Z,37.80
2019-05-16T01:09:31.158Z,37.90
2019-05-16T01:12:00.847Z,38.00
2019-05-16T01:14:30.628Z,38.00
2019-05-16T01:17:00.303Z,38.10
2019-05-16T01:19:30.079Z,38.20
2019-05-16T01:21:59.844Z,38.30
2019-05-16T01:24:29.692Z,38.50
2019-05-16T01:26:59.463Z,38.60
2019-05-16T01:29:30.233Z,38.80
2019-05-16T01:32:00.063Z,39.10
2019-05-16T01:34:30.255Z,39.60
2019-05-16T01:37:00.023Z,40.00
2019-05-16T01:39:29.864Z,40.30
2019-05-16T01:41:59.697Z,40.30
2019-05-16T01:44:29.520Z,40.20
2019-05-16T01:46:59.309Z,40.50
2019-05-16T01:49:30.978Z,40.70
2019-05-16T01:52:00.817Z,40.90
2019-05-16T01:54:30.575Z,40.90
2019-05-16T01:57:00.272Z,41.20
2019-05-16T01:59:30.039Z,41.50
2019-05-16T02:02:01.032Z,41.80
2019-05-16T02:04:30.813Z,41.70
2019-05-16T02:07:00.513Z,41.90
2019-05-16T02:09:30.272Z,42.00
2019-05-16T02:12:00.108Z,41.40
2019-05-16T02:14:29.793Z,41.30
2019-05-16T02:16:59.658Z,41.10
2019-05-16T02:19:29.544Z,41.00
2019-05-16T02:21:59.751Z,40.80
2019-05-16T02:24:29.531Z,40.60
2019-05-16T02:26:59.368Z,40.60
2019-05-16T02:29:30.031Z,40.60
2019-05-16T02:32:01.999Z,40.60
2019-05-16T02:34:31.188Z,40.50
2019-05-16T02:37:18.247Z,40.40
2019-05-16T02:39:32.454Z,40.40
2019-05-16T02:42:02.227Z,40.40
2019-05-16T02:44:32.291Z,40.20
2019-05-16T02:47:02.295Z,40.20
2019-05-16T02:49:34.113Z,40.20
2019-05-16T02:52:03.873Z,40.20
2019-05-16T02:54:33.649Z,40.10
2019-05-16T02:57:03.491Z,40.30
2019-05-16T02:59:33.328Z,40.40
2019-05-16T03:02:03.173Z,40.60
2019-05-16T03:04:33.015Z,40.60
2019-05-16T03:07:03.069Z,40.70
2019-05-16T03:09:34.024Z,40.80
2019-05-16T03:12:03.973Z,41.00
2019-05-16T03:14:34.691Z,41.30
2019-05-16T03:17:05.223Z,41.30
2019-05-16T03:19:37.851Z,41.30
2019-05-16T03:22:08.109Z,41.40
2019-05-16T03:24:37.849Z,41.50
2019-05-16T03:27:10.646Z,41.70
2019-05-16T03:29:41.774Z,41.90
2019-05-16T03:32:14.122Z,42.00
2019-05-16T03:34:43.849Z,42.10
2019-05-16T03:37:14.534Z,42.30
2019-05-16T03:39:44.838Z,42.50
2019-05-16T03:42:15.500Z,42.50
2019-05-16T03:44:45.279Z,42.70
2019-05-16T03:47:16.078Z,42.70
2019-05-16T03:49:45.865Z,43.10
2019-05-16T03:52:15.616Z,43.10
2019-05-16T03:54:45.391Z,43.20
2019-05-16T03:57:15.086Z,43.50
2019-05-16T03:59:44.879Z,43.40
2019-05-16T04:02:14.562Z,43.40
2019-05-16T04:04:44.329Z,43.70
2019-05-16T04:07:14.014Z,44.00
2019-05-16T04:09:43.724Z,44.00
2019-05-16T04:12:13.516Z,43.90
2019-05-16T04:14:43.283Z,44.20
2019-05-16T04:17:13.025Z,44.10
2019-05-16T04:19:42.785Z,44.40
2019-05-16T04:22:15.607Z,44.50
2019-05-16T04:24:45.373Z,44.70
2019-05-16T04:27:15.145Z,44.70
2019-05-16T04:29:44.981Z,45.00
2019-05-16T04:32:14.735Z,45.00
2019-05-16T04:34:45.095Z,45.30
2019-05-16T04:37:15.481Z,45.40
2019-05-16T04:39:45.333Z,45.40
2019-05-16T04:42:15.022Z,45.60
2019-05-16T04:44:45.338Z,45.70
2019-05-16T04:47:15.017Z,45.90
2019-05-16T04:49:44.794Z,45.90
2019-05-16T04:52:14.538Z,46.10
2019-05-16T04:54:44.303Z,46.20
2019-05-16T04:57:14.075Z,46.20
2019-05-16T04:59:43.933Z,46.50
2019-05-16T05:02:14.726Z,46.50
2019-05-16T05:04:44.573Z,46.40
2019-05-16T05:07:14.494Z,46.60
2019-05-16T05:09:44.173Z,46.70
2019-05-16T05:12:13.947Z,46.80
2019-05-16T05:14:44.590Z,46.90
2019-05-16T05:17:14.342Z,47.00
2019-05-16T05:19:45.179Z,47.20
2019-05-16T05:22:14.941Z,47.10
2019-05-16T05:24:44.704Z,47.10
2019-05-16T05:27:14.520Z,47.00
2019-05-16T05:29:44.228Z,47.50
2019-05-16T05:32:14.542Z,47.30
2019-05-16T05:34:44.638Z,47.50
2019-05-16T05:37:14.659Z,47.30
2019-05-16T05:39:44.360Z,47.50
2019-05-16T05:42:14.154Z,48.20
2019-05-16T05:44:45.236Z,46.90
2019-05-16T05:47:14.926Z,47.60
2019-05-16T05:49:44.760Z,47.50
2019-05-16T05:52:14.620Z,47.90
2019-05-16T05:54:44.482Z,47.80
2019-05-16T05:57:14.326Z,47.70
2019-05-16T05:59:44.084Z,47.70
2019-05-16T06:02:14.006Z,47.60
2019-05-16T06:04:43.690Z,47.50
2019-05-16T06:07:13.710Z,47.20
2019-05-16T06:09:53.463Z,47.60
2019-05-16T06:12:15.999Z,47.00
2019-05-16T06:14:45.821Z,47.10
2019-05-16T06:17:15.521Z,47.20
2019-05-16T06:19:45.272Z,47.20
2019-05-16T06:22:15.125Z,47.20
2019-05-16T06:24:44.890Z,47.10
2019-05-16T06:27:14.646Z,47.20
2019-05-16T06:29:44.430Z,47.20
2019-05-16T06:32:14.272Z,47.10
2019-05-16T06:34:44.024Z,47.00
2019-05-16T06:37:13.909Z,47.10
2019-05-16T06:39:45.514Z,47.10
2019-05-16T06:42:15.167Z,47.20
2019-05-16T06:44:44.926Z,47.10
2019-05-16T06:47:19.639Z,47.10
2019-05-16T06:49:46.144Z,47.10
2019-05-16T06:52:15.915Z,47.30
2019-05-16T06:54:45.751Z,47.10
2019-05-16T06:57:15.537Z,47.20
2019-05-16T06:59:45.372Z,47.10
2019-05-16T07:02:26.495Z,47.30
2019-05-16T07:04:46.752Z,47.30
2019-05-16T07:07:16.614Z,47.30
2019-05-16T07:09:58.121Z,47.30
2019-05-16T07:12:20.140Z,47.40
2019-05-16T07:14:50.552Z,47.10
2019-05-16T07:17:20.635Z,47.20
2019-05-16T07:19:50.443Z,47.10
2019-05-16T07:22:20.647Z,47.00
2019-05-16T07:24:50.614Z,47.00
2019-05-16T07:27:21.814Z,46.90
2019-05-16T07:29:51.934Z,46.90
2019-05-16T07:32:21.694Z,47.10
2019-05-16T07:34:51.463Z,46.90
2019-05-16T07:37:21.346Z,46.80
2019-05-16T07:39:51.292Z,46.70
2019-05-16T07:42:21.159Z,46.70
2019-05-16T07:44:51.001Z,46.80
2019-05-16T07:47:20.784Z,46.60
2019-05-16T07:49:50.645Z,46.40
2019-05-16T07:52:21.080Z,46.50
2019-05-16T07:54:51.038Z,46.90
2019-05-16T07:57:23.005Z,47.50
2019-05-16T07:59:52.333Z,47.00
2019-05-16T08:02:22.125Z,46.50
2019-05-16T08:04:52.986Z,46.00
2019-05-16T08:07:22.753Z,45.50
2019-05-16T08:09:52.605Z,45.50
2019-05-16T08:12:26.294Z,45.50
2019-05-16T08:14:53.828Z,45.10
2019-05-16T08:17:23.593Z,44.10
2019-05-16T08:19:53.301Z,43.40
2019-05-16T08:22:23.063Z,43.00
2019-05-16T08:24:52.841Z,42.10
2019-05-16T08:27:22.653Z,41.90
2019-05-16T08:29:52.478Z,41.70
2019-05-16T08:32:22.934Z,41.20
2019-05-16T08:34:53.118Z,41.00
2019-05-16T08:37:37.067Z,40.70
2019-05-16T08:39:54.235Z,40.20
2019-05-16T08:42:23.912Z,40.80
2019-05-16T08:44:53.759Z,39.70
2019-05-16T08:47:23.599Z,39.90
2019-05-16T08:49:53.446Z,39.80
2019-05-16T08:52:23.279Z,39.50
2019-05-16T08:54:53.129Z,39.70
2019-05-16T08:57:27.755Z,39.80
2019-05-16T08:59:54.309Z,40.70
2019-05-16T09:02:32.376Z,40.30
2019-05-16T09:04:55.504Z,40.60
2019-05-16T09:07:25.244Z,40.80
2019-05-16T09:09:59.786Z,40.90
2019-05-16T09:12:27.856Z,41.40
2019-05-16T09:15:00.423Z,41.50
2019-05-16T09:17:29.344Z,41.60
2019-05-16T09:19:59.112Z,41.00
2019-05-16T09:22:28.873Z,41.00
2019-05-16T09:24:58.726Z,40.40
2019-05-16T09:27:28.420Z,40.80
2019-05-16T09:29:58.214Z,40.30
2019-05-16T09:32:28.137Z,39.80
2019-05-16T09:34:58.027Z,39.70
2019-05-16T09:37:27.882Z,40.00
2019-05-16T09:39:57.612Z,40.00
2019-05-16T09:42:27.812Z,40.10
2019-05-16T09:44:58.050Z,40.20
2019-05-16T09:47:28.457Z,40.40
2019-05-16T09:49:58.524Z,40.70
2019-05-16T09:52:28.382Z,40.80
2019-05-16T09:54:58.344Z,40.80
2019-05-16T09:57:28.171Z,40.90
2019-05-16T09:59:57.951Z,41.00
2019-05-16T10:02:27.993Z,41.10
2019-05-16T10:04:58.212Z,40.80
2019-05-16T10:07:28.569Z,40.70
2019-05-16T10:09:58.442Z,40.20
2019-05-16T10:12:29.357Z,39.90
2019-05-16T10:14:59.749Z,39.70
2019-05-16T10:17:29.845Z,39.50
2019-05-16T10:20:00.115Z,39.20
2019-05-16T10:22:31.326Z,38.90
2019-05-16T10:25:01.088Z,39.20
2019-05-16T10:27:30.949Z,39.60
2019-05-16T10:30:01.542Z,39.60
2019-05-16T10:32:33.031Z,39.60
2019-05-16T10:35:02.927Z,39.70
2019-05-16T10:37:32.965Z,39.70
2019-05-16T10:40:03.075Z,39.60
2019-05-16T10:42:32.860Z,39.70
2019-05-16T10:45:02.721Z,39.90
2019-05-16T10:47:33.465Z,40.10
2019-05-16T10:50:03.302Z,40.10
2019-05-16T10:52:33.171Z,40.00
2019-05-16T10:55:03.183Z,40.00
2019-05-16T10:57:33.245Z,40.10
2019-05-16T11:00:12.435Z,40.30
2019-05-16T11:02:37.120Z,40.40
2019-05-16T11:05:23.847Z,40.70
2019-05-16T11:07:38.960Z,41.70
2019-05-16T11:10:09.126Z,41.40
2019-05-16T11:12:50.157Z,41.70
2019-05-16T11:15:11.438Z,41.90
2019-05-16T11:17:41.608Z,41.90
2019-05-16T11:20:11.680Z,42.00
2019-05-16T11:22:41.673Z,42.30
2019-05-16T11:25:24.140Z,42.50
2019-05-16T11:27:42.968Z,42.70
2019-05-16T11:30:12.865Z,42.80
2019-05-16T11:32:42.676Z,42.80
2019-05-16T11:35:16.902Z,43.10
2019-05-16T11:37:47.161Z,43.10
2019-05-16T11:40:18.026Z,43.30
2019-05-16T11:43:05.122Z,43.70
2019-05-16T11:45:20.002Z,44.10
2019-05-16T11:47:49.849Z,44.50
2019-05-16T11:50:19.778Z,44.20
2019-05-16T11:52:49.473Z,44.20
2019-05-16T11:55:19.390Z,43.80
2019-05-16T11:57:49.229Z,43.80
2019-05-16T12:00:19.550Z,43.80
2019-05-16T12:02:49.250Z,43.60
2019-05-16T12:05:19.078Z,44.10
2019-05-16T12:07:48.996Z,44.30
2019-05-16T12:10:19.999Z,44.70
2019-05-16T12:12:49.772Z,45.40
2019-05-16T12:15:20.298Z,46.20
2019-05-16T12:18:00.906Z,45.30
2019-05-16T12:20:21.635Z,45.20
2019-05-16T12:22:51.623Z,45.30
2019-05-16T12:25:21.445Z,45.60
2019-05-16T12:27:51.320Z,45.90
2019-05-16T12:30:21.154Z,45.40
2019-05-16T12:32:51.000Z,45.40
2019-05-16T12:35:20.764Z,45.00
2019-05-16T12:37:52.015Z,45.00
2019-05-16T12:40:23.142Z,44.90
2019-05-16T12:42:54.334Z,44.70
2019-05-16T12:45:27.243Z,44.70
2019-05-16T12:47:57.259Z,44.30
2019-05-16T12:50:28.932Z,44.20
2019-05-16T12:53:00.098Z,44.00
2019-05-16T12:55:31.166Z,44.10
2019-05-16T12:58:12.689Z,44.00
2019-05-16T13:00:32.607Z,44.00
2019-05-16T13:03:02.437Z,43.90
2019-05-16T13:05:32.304Z,44.10
2019-05-16T13:08:02.134Z,44.20
2019-05-16T13:10:34.310Z,44.30
2019-05-16T13:13:04.290Z,44.50
2019-05-16T13:15:34.134Z,44.60
2019-05-16T13:18:03.993Z,44.80
2019-05-16T13:20:37.586Z,44.50
2019-05-16T13:23:14.220Z,44.50
2019-05-16T13:25:38.030Z,44.40
2019-05-16T13:28:08.329Z,44.30
2019-05-16T13:30:38.498Z,44.40
2019-05-16T13:33:08.328Z,44.20
2019-05-16T13:35:38.035Z,44.40
2019-05-16T13:38:08.154Z,44.10
2019-05-16T13:40:38.083Z,44.20
2019-05-16T13:43:10.094Z,44.00
2019-05-16T13:45:39.411Z,43.40
2019-05-16T13:48:09.238Z,43.00
2019-05-16T13:50:39.892Z,43.20
2019-05-16T13:53:09.782Z,43.20
2019-05-16T13:55:39.562Z,43.40
2019-05-16T13:58:09.381Z,43.50
2019-05-16T14:00:39.230Z,43.80
2019-05-16T14:03:08.930Z,43.20
2019-05-16T14:05:38.798Z,43.30
2019-05-16T14:08:08.647Z,43.20
2019-05-16T14:10:38.469Z,43.50
2019-05-16T14:13:08.157Z,43.30
2019-05-16T14:15:38.010Z,43.50
2019-05-16T14:18:08.053Z,43.60
2019-05-16T14:20:38.038Z,43.70
2019-05-16T14:23:08.678Z,43.70
2019-05-16T14:25:38.693Z,43.60
2019-05-16T14:28:08.426Z,43.70
2019-05-16T14:30:39.245Z,44.20
2019-05-16T14:33:13.929Z,44.50
2019-05-16T14:35:40.444Z,44.60
2019-05-16T14:38:10.311Z,45.00
2019-05-16T14:40:40.195Z,44.90
2019-05-16T14:43:10.036Z,45.30
2019-05-16T14:45:39.799Z,45.50
2019-05-16T14:48:09.675Z,45.70
2019-05-16T14:50:39.514Z,45.70
2019-05-16T14:53:09.369Z,45.80
2019-05-16T14:55:39.133Z,46.00
2019-05-16T14:58:08.971Z,46.90
2019-05-16T15:00:38.738Z,46.70
2019-05-16T15:03:08.754Z,46.60
2019-05-16T15:05:42.284Z,46.90
2019-05-16T15:08:10.138Z,46.90
2019-05-16T15:10:39.883Z,47.00
2019-05-16T15:13:09.738Z,46.90
2019-05-16T15:15:39.491Z,47.10
2019-05-16T15:18:09.325Z,47.10
2019-05-16T15:20:39.490Z,47.20
2019-05-16T15:23:09.390Z,47.70
2019-05-16T15:25:39.137Z,47.90
2019-05-16T15:28:09.686Z,48.20
2019-05-16T15:30:39.579Z,48.50
2019-05-16T15:33:09.383Z,48.70
2019-05-16T15:35:39.213Z,48.80
2019-05-16T15:38:09.082Z,49.30
2019-05-16T15:40:38.926Z,49.90
2019-05-16T15:43:08.690Z,49.80
2019-05-16T15:45:43.582Z,50.20
2019-05-16T15:48:12.691Z,50.20
2019-05-16T15:50:42.738Z,50.70
2019-05-16T15:53:12.887Z,50.90
2019-05-16T15:55:43.628Z,51.10
2019-05-16T15:58:13.478Z,52.10
2019-05-16T16:00:48.218Z,52.00
2019-05-16T16:03:17.721Z,52.10
2019-05-16T16:05:47.853Z,52.10
2019-05-16T16:08:18.317Z,52.40
2019-05-16T16:10:48.514Z,52.60
2019-05-16T16:13:19.889Z,52.80
2019-05-16T16:15:54.263Z,53.10
2019-05-16T16:18:22.802Z,53.20
2019-05-16T16:20:52.629Z,53.50
2019-05-16T16:23:22.497Z,53.40
2019-05-16T16:25:52.448Z,53.50
2019-05-16T16:28:22.305Z,54.00
2019-05-16T16:30:52.138Z,54.00
2019-05-16T16:33:26.370Z,54.20
2019-05-16T16:35:53.628Z,54.30
2019-05-16T16:38:23.414Z,54.60
2019-05-16T16:40:53.292Z,55.20
2019-05-16T16:43:24.263Z,55.30
2019-05-16T16:46:06.066Z,55.70
2019-05-16T16:48:26.761Z,56.00
2019-05-16T16:50:57.440Z,56.20
2019-05-16T16:53:27.441Z,56.60
2019-05-16T16:55:57.295Z,56.60
2019-05-16T16:58:27.274Z,56.50
2019-05-16T17:00:57.037Z,56.60
2019-05-16T17:03:27.381Z,57.20
2019-05-16T17:05:57.256Z,57.90
2019-05-16T17:08:27.377Z,57.80
2019-05-16T17:10:57.682Z,58.20
2019-05-16T17:13:27.716Z,58.10
2019-05-16T17:15:57.533Z,58.30
2019-05-16T17:18:27.694Z,58.90
2019-05-16T17:20:57.682Z,58.80
2019-05-16T17:23:27.500Z,59.10
2019-05-16T17:25:57.363Z,59.40
2019-05-16T17:28:27.278Z,59.50
2019-05-16T17:30:57.198Z,59.70
2019-05-16T17:33:28.620Z,59.90
2019-05-16T17:35:58.683Z,60.10
2019-05-16T17:38:28.419Z,60.20
2019-05-16T17:40:58.262Z,60.40
2019-05-16T17:43:28.086Z,60.70
2019-05-16T17:45:57.933Z,60.90
2019-05-16T17:48:29.991Z,60.90
2019-05-16T17:50:58.997Z,60.90
2019-05-16T17:53:28.749Z,61.30
2019-05-16T17:55:58.456Z,61.40
2019-05-16T17:58:28.216Z,61.70
2019-05-16T18:01:00.379Z,61.90
2019-05-16T18:03:29.517Z,61.90
2019-05-16T18:06:00.458Z,62.10
2019-05-16T18:08:30.208Z,62.20
2019-05-16T18:10:59.981Z,62.70
2019-05-16T18:13:29.758Z,63.20
2019-05-16T18:15:59.513Z,63.10
2019-05-16T18:18:29.342Z,63.40
2019-05-16T18:21:02.168Z,64.70
2019-05-16T18:23:30.505Z,64.00
2019-05-16T18:26:02.117Z,64.40
2019-05-16T18:28:31.736Z,64.40
2019-05-16T18:31:01.591Z,64.30
2019-05-16T18:33:31.333Z,64.90
2019-05-16T18:36:01.188Z,64.90
2019-05-16T18:38:30.949Z,65.50
2019-05-16T18:41:00.716Z,65.30
2019-05-16T18:43:30.461Z,66.00
2019-05-16T18:46:00.252Z,66.10
2019-05-16T18:48:30.012Z,66.30
2019-05-16T18:50:59.864Z,66.60
2019-05-16T18:53:51.983Z,66.60
2019-05-16T18:56:48.883Z,66.40
2019-05-16T18:59:32.508Z,67.00
2019-05-16T19:02:13.728Z,67.60
2019-05-16T19:05:01.896Z,66.80
2019-05-16T19:11:31.191Z,67.00
2019-05-16T19:14:27.079Z,67.30
2019-05-16T19:17:35.068Z,67.40
2019-05-16T19:20:29.023Z,68.00
2019-05-16T19:26:49.735Z,68.10
2019-05-16T19:30:13.521Z,68.20
2019-05-16T19:32:39.692Z,67.90
2019-05-16T19:35:10.985Z,68.20
2019-05-16T19:37:40.890Z,68.70
2019-05-16T19:40:10.950Z,68.80
2019-05-16T19:42:40.804Z,68.90
2019-05-16T19:45:10.770Z,69.40
2019-05-16T19:47:41.544Z,69.20
2019-05-16T19:50:12.872Z,69.40
2019-05-16T19:52:42.578Z,69.70
2019-05-16T19:55:13.187Z,69.60
2019-05-16T19:57:43.048Z,69.60
2019-05-16T20:00:17.007Z,69.60
2019-05-16T20:02:47.340Z,69.60
2019-05-16T20:05:18.405Z,69.80
2019-05-16T20:07:49.705Z,69.90
2019-05-16T20:10:19.732Z,69.90
2019-05-16T20:12:49.669Z,70.20
2019-05-16T20:15:19.503Z,70.10
2019-05-16T20:17:56.201Z,70.10
2019-05-16T20:20:20.883Z,70.30
2019-05-16T20:22:50.725Z,70.40
2019-05-16T20:25:20.558Z,70.30
2019-05-16T20:27:50.250Z,70.30
2019-05-16T20:30:20.161Z,70.30
2019-05-16T20:32:50.031Z,70.50
2019-05-16T20:35:20.828Z,70.50
2019-05-16T20:37:50.715Z,70.50
2019-05-16T20:40:20.765Z,70.50
2019-05-16T20:42:50.471Z,70.50
2019-05-16T20:45:20.318Z,70.70
2019-05-16T20:47:50.110Z,70.70
2019-05-16T20:50:19.989Z,71.30
2019-05-16T20:52:49.827Z,70.70
2019-05-16T20:55:19.762Z,70.70
2019-05-16T20:57:49.527Z,70.70
2019-05-16T21:00:19.672Z,70.70
2019-05-16T21:02:49.691Z,70.60
2019-05-16T21:05:19.639Z,70.90
2019-05-16T21:07:49.482Z,70.80
2019-05-16T21:10:19.933Z,70.70
2019-05-16T21:12:49.632Z,70.80
2019-05-16T21:15:19.549Z,71.00
2019-05-16T21:17:49.371Z,70.80
2019-05-16T21:20:19.220Z,70.90
2019-05-16T21:22:48.975Z,71.90
2019-05-16T21:25:18.985Z,70.90
2019-05-16T21:27:48.767Z,70.90
2019-05-16T21:30:19.215Z,70.90
2019-05-16T21:32:50.362Z,70.70
2019-05-16T21:35:20.234Z,70.80
2019-05-16T21:37:49.909Z,70.70
2019-05-16T21:40:19.774Z,70.80
2019-05-16T21:42:49.596Z,70.70
2019-05-16T21:45:19.451Z,70.70
2019-05-16T21:47:49.219Z,70.70
2019-05-16T21:50:19.166Z,70.50
2019-05-16T21:52:49.033Z,70.60
2019-05-16T21:55:18.738Z,70.70
2019-05-16T21:57:48.430Z,70.60
2019-05-16T22:00:26.650Z,70.70
2019-05-16T22:02:58.058Z,70.80
2019-05-16T22:05:27.971Z,70.60
2019-05-16T22:07:57.809Z,70.70
2019-05-16T22:10:27.695Z,70.90
2019-05-16T22:12:59.257Z,70.70
2019-05-16T22:15:29.267Z,70.80
2019-05-16T22:17:59.104Z,70.90
2019-05-16T22:20:28.886Z,71.10
2019-05-16T22:22:58.573Z,71.10
2019-05-16T22:25:28.416Z,71.10
2019-05-16T22:27:58.261Z,71.00
2019-05-16T22:30:28.104Z,70.90
2019-05-16T22:32:57.936Z,70.80
2019-05-16T22:35:27.702Z,70.80
2019-05-16T22:37:59.438Z,71.00
2019-05-16T22:40:29.035Z,70.90
2019-05-16T22:42:59.831Z,70.80
2019-05-16T22:45:29.589Z,71.10
2019-05-16T22:47:59.347Z,70.70
2019-05-16T22:50:29.130Z,70.70
2019-05-16T22:52:58.888Z,70.90
2019-05-16T22:55:29.882Z,71.40
2019-05-16T22:57:59.640Z,71.00
2019-05-16T23:00:31.167Z,71.00
2019-05-16T23:03:00.997Z,71.00
2019-05-16T23:05:30.781Z,71.10
2019-05-16T23:08:05.632Z,71.00
2019-05-16T23:10:31.940Z,71.00
2019-05-16T23:13:01.693Z,71.10
2019-05-16T23:15:31.473Z,70.90
2019-05-16T23:18:01.312Z,71.00
2019-05-16T23:20:31.072Z,71.10
2019-05-16T23:23:00.777Z,71.10
2019-05-16T23:25:30.567Z,71.10
2019-05-16T23:28:00.246Z,71.10
2019-05-16T23:30:30.076Z,71.30
2019-05-16T23:32:59.916Z,71.30
2019-05-16T23:35:29.603Z,71.50
2019-05-16T23:37:59.297Z,71.50
2019-05-16T23:40:29.144Z,71.50
2019-05-16T23:42:58.828Z,71.40
2019-05-16T23:45:28.594Z,71.40
2019-05-16T23:47:58.361Z,71.60
2019-05-16T23:50:29.015Z,71.50
2019-05-16T23:52:58.778Z,71.50
2019-05-16T23:55:28.605Z,71.50
2019-05-16T23:57:59.343Z,71.70
